createdAt,value
2017-07-23T00:00:44.120Z,99.90
2017-07-23T00:03:12.502Z,99.90
2017-07-23T00:05:40.797Z,99.90
2017-07-23T00:08:09.093Z,99.90
2017-07-23T00:10:37.435Z,99.90
2017-07-23T00:13:05.741Z,99.90
2017-07-23T00:15:34.904Z,99.90
2017-07-23T00:18:03.269Z,99.90
2017-07-23T00:20:31.590Z,99.90
2017-07-23T00:22:59.925Z,99.90
2017-07-23T00:25:28.289Z,99.90
2017-07-23T00:27:56.584Z,99.90
2017-07-23T00:30:25.002Z,99.90
2017-07-23T00:32:53.359Z,99.90
2017-07-23T00:35:22.693Z,99.90
2017-07-23T00:37:50.989Z,99.90
2017-07-23T00:40:23.082Z,99.90
2017-07-23T00:42:58.327Z,99.90
2017-07-23T00:45:26.627Z,99.90
2017-07-23T00:47:54.988Z,99.90
2017-07-23T00:50:23.717Z,99.90
2017-07-23T00:52:53.033Z,99.90
2017-07-23T00:55:21.792Z,99.90
2017-07-23T00:57:50.196Z,99.90
2017-07-23T01:00:19.057Z,99.90
2017-07-23T01:02:47.894Z,99.90
2017-07-23T01:05:17.310Z,99.90
2017-07-23T01:07:46.052Z,99.90
2017-07-23T01:10:16.241Z,99.90
2017-07-23T01:12:45.998Z,99.90
2017-07-23T01:15:16.461Z,99.90
2017-07-23T01:17:45.858Z,99.90
2017-07-23T01:20:16.473Z,99.90
2017-07-23T01:22:46.469Z,99.90
2017-07-23T01:25:15.995Z,99.90
2017-07-23T01:27:45.562Z,99.90
2017-07-23T01:30:18.942Z,99.90
2017-07-23T01:32:49.181Z,99.90
2017-07-23T01:35:18.320Z,99.90
2017-07-23T01:37:46.998Z,99.90
2017-07-23T01:40:17.026Z,99.90
2017-07-23T01:42:46.829Z,99.90
2017-07-23T01:45:17.904Z,99.90
2017-07-23T01:47:48.760Z,99.90
2017-07-23T01:50:18.599Z,99.90
2017-07-23T01:52:49.560Z,99.90
2017-07-23T01:55:18.966Z,99.90
2017-07-23T01:57:47.792Z,99.90
2017-07-23T02:00:31.752Z,99.90
2017-07-23T02:03:00.313Z,99.90
2017-07-23T02:05:29.438Z,99.90
2017-07-23T02:07:58.517Z,99.90
2017-07-23T02:10:26.865Z,99.90
2017-07-23T02:12:55.230Z,99.90
2017-07-23T02:15:24.301Z,99.90
2017-07-23T02:17:52.681Z,99.90
2017-07-23T02:20:21.005Z,99.90
2017-07-23T02:22:50.854Z,99.90
2017-07-23T02:25:20.112Z,99.90
2017-07-23T02:27:48.891Z,99.90
2017-07-23T02:30:19.086Z,99.90
2017-07-23T02:32:49.469Z,99.90
2017-07-23T02:35:18.287Z,99.90
2017-07-23T02:37:46.907Z,99.90
2017-07-23T02:40:16.413Z,99.90
2017-07-23T02:42:47.540Z,99.90
2017-07-23T02:45:16.551Z,99.90
2017-07-23T02:47:47.678Z,99.90
2017-07-23T02:50:19.077Z,99.90
2017-07-23T02:52:48.161Z,99.90
2017-07-23T02:55:17.266Z,99.90
2017-07-23T02:57:46.239Z,99.90
2017-07-23T03:00:15.316Z,99.90
2017-07-23T03:02:45.930Z,99.90
2017-07-23T03:05:19.138Z,99.90
2017-07-23T03:07:48.485Z,99.90
2017-07-23T03:10:18.436Z,99.90
2017-07-23T03:12:47.822Z,99.90
2017-07-23T03:15:17.314Z,99.90
2017-07-23T03:17:47.751Z,99.90
2017-07-23T03:20:17.023Z,99.90
2017-07-23T03:22:47.208Z,99.90
2017-07-23T03:25:16.437Z,99.90
2017-07-23T03:27:46.980Z,99.90
2017-07-23T03:30:17.013Z,99.90
2017-07-23T03:32:46.502Z,99.90
2017-07-23T03:35:18.489Z,99.90
2017-07-23T03:37:48.487Z,99.90
2017-07-23T03:40:17.208Z,99.90
2017-07-23T03:42:46.486Z,99.90
2017-07-23T03:45:16.585Z,99.90
2017-07-23T03:47:48.590Z,99.90
2017-07-23T03:50:17.268Z,99.90
2017-07-23T03:52:46.389Z,99.90
2017-07-23T03:55:16.391Z,99.90
2017-07-23T03:57:45.711Z,99.90
2017-07-23T04:00:15.363Z,99.90
2017-07-23T04:02:48.422Z,99.90
2017-07-23T04:05:18.217Z,99.90
2017-07-23T04:07:46.945Z,99.90
2017-07-23T04:10:16.110Z,99.90
2017-07-23T04:12:46.484Z,99.90
2017-07-23T04:15:15.632Z,99.90
2017-07-23T04:17:47.282Z,99.90
2017-07-23T04:20:16.879Z,99.90
2017-07-23T04:22:46.937Z,99.90
2017-07-23T04:25:17.961Z,99.90
2017-07-23T04:27:48.139Z,99.90
2017-07-23T04:30:17.184Z,99.90
2017-07-23T04:32:46.618Z,99.90
2017-07-23T04:35:16.615Z,99.90
2017-07-23T04:37:45.751Z,99.90
2017-07-23T04:40:17.324Z,99.90
2017-07-23T04:42:46.709Z,99.90
2017-07-23T04:45:16.018Z,99.90
2017-07-23T04:47:45.326Z,99.90
2017-07-23T04:50:16.982Z,99.90
2017-07-23T04:52:48.063Z,99.90
2017-07-23T04:55:18.128Z,99.90
2017-07-23T04:57:48.012Z,99.90
2017-07-23T05:00:17.489Z,99.90
2017-07-23T05:02:46.401Z,99.90
2017-07-23T05:05:17.544Z,99.90
2017-07-23T05:07:46.594Z,99.90
2017-07-23T05:10:16.398Z,99.90
2017-07-23T05:12:46.240Z,99.90
2017-07-23T05:15:16.255Z,99.90
2017-07-23T05:17:46.696Z,99.90
2017-07-23T05:20:16.084Z,99.90
2017-07-23T05:22:46.339Z,99.90
2017-07-23T05:25:15.455Z,99.90
2017-07-23T05:27:45.000Z,99.90
2017-07-23T05:30:14.830Z,99.90
2017-07-23T05:32:46.661Z,99.90
2017-07-23T05:35:17.095Z,99.90
2017-07-23T05:37:46.737Z,99.90
2017-07-23T05:40:16.226Z,99.90
2017-07-23T05:42:46.052Z,99.90
2017-07-23T05:45:15.829Z,99.90
2017-07-23T05:47:45.998Z,99.90
2017-07-23T05:50:18.707Z,99.90
2017-07-23T05:52:48.404Z,99.90
2017-07-23T05:55:17.591Z,99.90
2017-07-23T05:57:46.567Z,99.90
2017-07-23T06:00:16.859Z,99.90
2017-07-23T06:02:45.835Z,99.90
2017-07-23T06:05:16.211Z,99.90
2017-07-23T06:07:45.117Z,99.90
2017-07-23T06:10:17.473Z,99.90
2017-07-23T06:12:46.565Z,99.90
2017-07-23T06:15:16.034Z,99.90
2017-07-23T06:17:46.070Z,99.90
2017-07-23T06:20:15.043Z,99.90
2017-07-23T06:22:47.502Z,99.90
2017-07-23T06:25:16.831Z,99.90
2017-07-23T06:27:46.257Z,99.90
2017-07-23T06:30:16.042Z,99.90
2017-07-23T06:32:46.076Z,99.90
2017-07-23T06:35:16.029Z,99.90
2017-07-23T06:37:45.404Z,99.90
2017-07-23T06:40:16.550Z,99.90
2017-07-23T06:42:47.021Z,99.90
2017-07-23T06:45:16.742Z,99.90
2017-07-23T06:47:46.289Z,99.90
2017-07-23T06:50:16.499Z,99.90
2017-07-23T06:52:45.912Z,99.90
2017-07-23T06:55:17.024Z,99.90
2017-07-23T06:57:45.882Z,99.90
2017-07-23T07:00:16.133Z,99.90
2017-07-23T07:02:46.257Z,99.90
2017-07-23T07:05:16.223Z,99.90
2017-07-23T07:07:45.155Z,99.90
2017-07-23T07:10:15.340Z,99.90
2017-07-23T07:12:45.176Z,99.90
2017-07-23T07:15:14.870Z,99.90
2017-07-23T07:17:45.754Z,99.90
2017-07-23T07:20:16.049Z,99.90
2017-07-23T07:22:46.502Z,99.90
2017-07-23T07:25:16.796Z,99.90
2017-07-23T07:27:46.030Z,99.90
2017-07-23T07:30:16.173Z,99.90
2017-07-23T07:32:45.967Z,99.90
2017-07-23T07:35:16.083Z,99.90
2017-07-23T07:37:46.427Z,99.90
2017-07-23T07:40:16.204Z,99.90
2017-07-23T07:42:45.351Z,99.90
2017-07-23T07:45:15.836Z,99.90
2017-07-23T07:47:45.676Z,99.90
2017-07-23T07:50:15.668Z,99.90
2017-07-23T07:52:46.357Z,99.90
2017-07-23T07:55:15.983Z,99.90
2017-07-23T07:57:45.954Z,99.90
2017-07-23T08:00:15.934Z,99.90
2017-07-23T08:02:45.877Z,99.90
2017-07-23T08:05:16.452Z,99.90
2017-07-23T08:07:45.864Z,99.90
2017-07-23T08:10:16.028Z,99.90
2017-07-23T08:12:45.158Z,99.90
2017-07-23T08:15:15.291Z,99.90
2017-07-23T08:17:46.229Z,99.90
2017-07-23T08:20:16.472Z,99.90
2017-07-23T08:22:45.789Z,99.90
2017-07-23T08:25:15.941Z,99.90
2017-07-23T08:27:45.489Z,99.90
2017-07-23T08:30:15.929Z,99.90
2017-07-23T08:32:45.037Z,99.90
2017-07-23T08:35:14.914Z,99.90
2017-07-23T08:37:44.622Z,99.90
2017-07-23T08:40:14.120Z,99.90
2017-07-23T08:42:43.784Z,99.90
2017-07-23T08:45:13.770Z,99.90
2017-07-23T08:47:44.830Z,99.90
2017-07-23T08:50:15.407Z,99.90
2017-07-23T08:52:44.600Z,99.90
2017-07-23T08:55:14.917Z,99.90
2017-07-23T08:57:45.770Z,99.90
2017-07-23T09:00:15.367Z,99.90
2017-07-23T09:02:47.101Z,99.90
2017-07-23T09:05:15.739Z,99.90
2017-07-23T09:07:44.661Z,99.90
2017-07-23T09:10:15.212Z,99.90
2017-07-23T09:12:45.208Z,99.90
2017-07-23T09:15:15.168Z,99.90
2017-07-23T09:17:44.598Z,99.90
2017-07-23T09:20:14.856Z,99.90
2017-07-23T09:22:43.981Z,99.90
2017-07-23T09:25:13.057Z,99.90
2017-07-23T09:27:43.335Z,99.90
2017-07-23T09:30:13.177Z,99.90
2017-07-23T09:32:43.454Z,99.90
2017-07-23T09:35:17.200Z,99.90
2017-07-23T09:37:45.954Z,99.90
2017-07-23T09:40:15.803Z,99.90
2017-07-23T09:42:45.522Z,99.90
2017-07-23T09:45:16.954Z,99.90
2017-07-23T09:47:45.835Z,99.90
2017-07-23T09:50:15.276Z,99.90
2017-07-23T09:52:46.238Z,99.90
2017-07-23T09:55:15.443Z,99.90
2017-07-23T09:57:44.269Z,99.90
2017-07-23T10:00:15.137Z,99.90
2017-07-23T10:02:45.535Z,99.90
2017-07-23T10:05:15.110Z,99.90
2017-07-23T10:07:45.791Z,99.90
2017-07-23T10:10:16.049Z,99.90
2017-07-23T10:12:46.572Z,99.90
2017-07-23T10:15:17.163Z,99.90
2017-07-23T10:17:46.336Z,99.90
2017-07-23T10:20:15.512Z,99.90
2017-07-23T10:22:44.994Z,99.90
2017-07-23T10:25:14.920Z,99.90
2017-07-23T10:27:44.512Z,99.90
2017-07-23T10:30:14.601Z,99.90
2017-07-23T10:32:45.373Z,99.90
2017-07-23T10:35:14.868Z,99.90
2017-07-23T10:37:44.865Z,99.90
2017-07-23T10:40:14.607Z,99.50
2017-07-23T10:42:44.643Z,98.20
2017-07-23T10:45:14.629Z,99.40
2017-07-23T10:47:44.442Z,99.40
2017-07-23T10:50:14.243Z,99.90
2017-07-23T10:52:44.132Z,99.90
2017-07-23T10:55:13.639Z,99.90
2017-07-23T10:57:43.484Z,99.90
2017-07-23T11:00:13.393Z,99.90
2017-07-23T11:02:44.351Z,99.90
2017-07-23T11:05:12.882Z,99.90
2017-07-23T11:07:42.523Z,99.90
2017-07-23T11:10:14.086Z,99.90
2017-07-23T11:12:43.671Z,99.90
2017-07-23T11:15:14.701Z,99.90
2017-07-23T11:17:44.232Z,99.90
2017-07-23T11:20:14.325Z,99.90
2017-07-23T11:22:44.841Z,99.90
2017-07-23T11:25:14.895Z,99.90
2017-07-23T11:27:45.068Z,99.90
2017-07-23T11:30:15.269Z,99.90
2017-07-23T11:32:45.235Z,99.90
2017-07-23T11:35:15.047Z,99.90
2017-07-23T11:37:55.196Z,99.90
2017-07-23T11:40:24.284Z,99.90
2017-07-23T11:42:53.102Z,99.90
2017-07-23T11:45:21.760Z,99.90
2017-07-23T11:47:51.105Z,99.90
2017-07-23T11:50:19.953Z,99.90
2017-07-23T11:52:50.748Z,99.90
2017-07-23T11:55:19.644Z,99.90
2017-07-23T11:57:48.619Z,99.90
2017-07-23T12:00:17.329Z,99.90
2017-07-23T12:02:47.332Z,99.90
2017-07-23T12:05:18.809Z,98.60
2017-07-23T12:07:47.751Z,99.90
2017-07-23T12:10:16.716Z,99.90
2017-07-23T12:12:46.920Z,99.90
2017-07-23T12:15:16.217Z,99.90
2017-07-23T12:17:45.353Z,99.90
2017-07-23T12:20:15.381Z,99.90
2017-07-23T12:22:44.719Z,99.90
2017-07-23T12:25:14.613Z,99.90
2017-07-23T12:27:45.059Z,99.90
2017-07-23T12:30:15.051Z,99.90
2017-07-23T12:32:44.642Z,99.90
2017-07-23T12:35:14.922Z,99.90
2017-07-23T12:37:44.521Z,99.90
2017-07-23T12:40:13.944Z,99.40
2017-07-23T12:42:43.979Z,99.20
2017-07-23T12:45:14.579Z,99.90
2017-07-23T12:47:43.977Z,99.40
2017-07-23T12:50:13.805Z,99.90
2017-07-23T12:52:43.708Z,99.60
2017-07-23T12:55:14.929Z,99.90
2017-07-23T12:57:44.221Z,99.90
2017-07-23T13:00:14.008Z,99.90
2017-07-23T13:02:43.716Z,99.90
2017-07-23T13:05:13.478Z,99.90
2017-07-23T13:07:42.982Z,99.90
2017-07-23T13:10:13.348Z,99.90
2017-07-23T13:12:43.140Z,99.90
2017-07-23T13:15:12.568Z,99.90
2017-07-23T13:17:41.677Z,99.90
2017-07-23T13:20:11.306Z,99.90
2017-07-23T13:22:40.496Z,99.90
2017-07-23T13:25:09.457Z,99.90
2017-07-23T13:27:38.226Z,99.90
2017-07-23T13:30:08.303Z,99.90
2017-07-23T13:32:36.939Z,98.90
2017-07-23T13:35:05.442Z,98.80
2017-07-23T13:37:33.798Z,98.60
2017-07-23T13:40:02.141Z,97.50
2017-07-23T13:42:30.442Z,99.20
2017-07-23T13:44:59.386Z,96.10
2017-07-23T13:47:27.680Z,96.40
2017-07-23T13:49:56.050Z,94.90
2017-07-23T13:52:24.664Z,95.70
2017-07-23T13:54:52.957Z,95.40
2017-07-23T13:57:21.517Z,96.80
2017-07-23T13:59:50.061Z,97.00
2017-07-23T14:02:19.536Z,96.80
2017-07-23T14:04:48.235Z,96.80
2017-07-23T14:07:17.044Z,95.60
2017-07-23T14:09:45.949Z,93.60
2017-07-23T14:12:15.137Z,93.30
2017-07-23T14:14:44.262Z,93.10
2017-07-23T14:17:13.799Z,92.00
2017-07-23T14:19:43.202Z,91.80
2017-07-23T14:22:13.041Z,93.20
2017-07-23T14:24:44.111Z,92.20
2017-07-23T14:27:14.638Z,94.00
2017-07-23T14:29:43.670Z,94.10
2017-07-23T14:32:13.636Z,92.60
2017-07-23T14:34:45.096Z,92.40
2017-07-23T14:37:15.379Z,93.70
2017-07-23T14:39:44.920Z,92.30
2017-07-23T14:42:15.010Z,92.20
2017-07-23T14:44:44.990Z,91.40
2017-07-23T14:47:14.744Z,92.20
2017-07-23T14:49:44.798Z,91.00
2017-07-23T14:52:14.109Z,91.70
2017-07-23T14:54:44.416Z,93.70
2017-07-23T14:57:14.375Z,92.00
2017-07-23T14:59:45.522Z,93.20
2017-07-23T15:02:15.852Z,93.20
2017-07-23T15:04:44.946Z,93.30
2017-07-23T15:07:14.555Z,94.80
2017-07-23T15:09:44.644Z,94.70
2017-07-23T15:12:13.575Z,95.10
2017-07-23T15:14:44.477Z,94.60
2017-07-23T15:17:14.115Z,93.30
2017-07-23T15:19:44.455Z,93.70
2017-07-23T15:22:14.327Z,93.10
2017-07-23T15:24:44.681Z,91.60
2017-07-23T15:27:14.364Z,91.90
2017-07-23T15:29:44.419Z,92.20
2017-07-23T15:32:14.416Z,90.50
2017-07-23T15:34:44.724Z,91.30
2017-07-23T15:37:14.825Z,92.20
2017-07-23T15:39:45.119Z,92.60
2017-07-23T15:42:16.026Z,91.80
2017-07-23T15:44:45.837Z,92.00
2017-07-23T15:47:15.824Z,93.20
2017-07-23T15:49:45.476Z,94.20
2017-07-23T15:52:15.474Z,93.00
2017-07-23T15:54:44.654Z,91.60
2017-07-23T15:57:14.194Z,92.50
2017-07-23T15:59:44.659Z,91.00
2017-07-23T16:02:15.068Z,89.80
2017-07-23T16:04:45.414Z,90.00
2017-07-23T16:07:15.204Z,89.00
2017-07-23T16:09:44.930Z,92.00
2017-07-23T16:12:14.229Z,92.50
2017-07-23T16:14:44.739Z,89.60
2017-07-23T16:17:14.155Z,88.40
2017-07-23T16:19:45.523Z,90.90
2017-07-23T16:22:14.797Z,90.90
2017-07-23T16:24:44.177Z,91.80
2017-07-23T16:27:14.105Z,91.60
2017-07-23T16:29:44.201Z,92.30
2017-07-23T16:32:14.252Z,92.30
2017-07-23T16:34:44.197Z,94.00
2017-07-23T16:37:13.424Z,93.80
2017-07-23T16:39:43.469Z,94.10
2017-07-23T16:42:14.340Z,95.40
2017-07-23T16:44:43.835Z,94.80
2017-07-23T16:47:14.522Z,95.00
2017-07-23T16:49:44.849Z,96.50
2017-07-23T16:52:14.101Z,96.40
2017-07-23T16:54:43.894Z,96.00
2017-07-23T16:57:13.135Z,95.60
2017-07-23T16:59:43.099Z,96.90
2017-07-23T17:02:12.104Z,97.20
2017-07-23T17:04:42.498Z,97.50
2017-07-23T17:07:11.627Z,97.60
2017-07-23T17:09:41.195Z,98.30
2017-07-23T17:12:11.007Z,98.10
2017-07-23T17:14:40.625Z,97.70
2017-07-23T17:17:10.721Z,96.40
2017-07-23T17:19:39.447Z,98.00
2017-07-23T17:22:08.610Z,98.00
2017-07-23T17:24:37.719Z,99.90
2017-07-23T17:27:06.260Z,99.00
2017-07-23T17:29:34.698Z,98.20
2017-07-23T17:32:03.088Z,99.00
2017-07-23T17:34:31.448Z,99.20
2017-07-23T17:36:59.812Z,99.80
2017-07-23T17:39:29.060Z,99.90
2017-07-23T17:41:57.408Z,99.90
2017-07-23T17:44:25.732Z,99.90
2017-07-23T17:46:54.341Z,99.90
2017-07-23T17:49:22.642Z,99.90
2017-07-23T17:51:51.158Z,99.90
2017-07-23T17:54:20.226Z,99.90
2017-07-23T17:56:49.079Z,99.90
2017-07-23T17:59:18.354Z,99.90
2017-07-23T18:01:49.603Z,99.90
2017-07-23T18:04:19.870Z,99.90
2017-07-23T18:06:48.655Z,99.90
2017-07-23T18:09:17.607Z,99.90
2017-07-23T18:11:46.432Z,99.90
2017-07-23T18:14:15.452Z,99.90
2017-07-23T18:16:44.128Z,99.90
2017-07-23T18:19:15.654Z,99.90
2017-07-23T18:21:46.069Z,99.90
2017-07-23T18:24:15.150Z,99.90
2017-07-23T18:26:44.965Z,99.90
2017-07-23T18:29:14.195Z,99.90
2017-07-23T18:31:43.145Z,99.90
2017-07-23T18:34:12.391Z,99.90
2017-07-23T18:36:41.260Z,99.90
2017-07-23T18:39:10.500Z,99.90
2017-07-23T18:41:39.648Z,99.90
2017-07-23T18:44:08.456Z,99.90
2017-07-23T18:46:37.489Z,99.90
2017-07-23T18:49:06.331Z,99.90
2017-07-23T18:51:36.084Z,99.90
2017-07-23T18:54:04.772Z,99.90
2017-07-23T18:56:33.110Z,99.90
2017-07-23T18:59:01.503Z,99.90
2017-07-23T19:01:29.849Z,99.90
2017-07-23T19:03:58.203Z,99.90
2017-07-23T19:06:26.497Z,99.90
2017-07-23T19:08:54.920Z,99.90
2017-07-23T19:11:23.333Z,99.90
2017-07-23T19:13:53.379Z,99.90
2017-07-23T19:16:22.745Z,99.90
2017-07-23T19:18:51.442Z,99.90
2017-07-23T19:21:23.351Z,99.90
2017-07-23T19:23:52.030Z,99.90
2017-07-23T19:26:20.834Z,99.90
2017-07-23T19:28:49.418Z,99.90
2017-07-23T19:31:17.990Z,99.90
2017-07-23T19:33:48.853Z,99.90
2017-07-23T19:36:18.022Z,99.90
2017-07-23T19:38:46.803Z,99.90
2017-07-23T19:41:17.167Z,99.90
2017-07-23T19:43:46.630Z,99.90
2017-07-23T19:46:16.423Z,99.90
2017-07-23T19:48:45.097Z,99.90
2017-07-23T19:51:15.958Z,99.90
2017-07-23T19:53:45.769Z,99.90
2017-07-23T19:56:15.086Z,99.90
2017-07-23T19:58:45.558Z,99.90
2017-07-23T20:01:17.462Z,99.90
2017-07-23T20:03:46.227Z,99.90
2017-07-23T20:06:16.251Z,99.90
2017-07-23T20:08:45.826Z,99.90
2017-07-23T20:11:17.130Z,99.90
2017-07-23T20:13:47.101Z,99.90
2017-07-23T20:16:16.840Z,99.90
2017-07-23T20:18:45.814Z,99.90
2017-07-23T20:21:15.013Z,99.90
2017-07-23T20:23:45.607Z,99.90
2017-07-23T20:26:15.531Z,99.90
2017-07-23T20:28:46.091Z,99.90
2017-07-23T20:31:15.959Z,99.90
2017-07-23T20:33:46.198Z,99.90
2017-07-23T20:36:15.645Z,99.90
2017-07-23T20:38:47.376Z,99.90
2017-07-23T20:41:18.076Z,99.90
2017-07-23T20:43:47.451Z,99.90
2017-07-23T20:46:17.383Z,99.90
2017-07-23T20:48:46.448Z,99.90
2017-07-23T20:51:16.402Z,99.90
2017-07-23T20:53:45.001Z,99.90
2017-07-23T20:56:14.510Z,99.90
2017-07-23T20:58:45.890Z,99.90
2017-07-23T21:01:15.788Z,99.90
2017-07-23T21:03:44.963Z,99.90
2017-07-23T21:06:14.735Z,99.90
2017-07-23T21:08:45.053Z,99.90
2017-07-23T21:11:14.638Z,99.90
2017-07-23T21:13:47.018Z,99.90
2017-07-23T21:16:16.963Z,99.90
2017-07-23T21:18:46.153Z,99.90
2017-07-23T21:21:15.558Z,99.90
2017-07-23T21:23:44.505Z,99.90
2017-07-23T21:26:14.621Z,99.90
2017-07-23T21:28:45.531Z,99.90
2017-07-23T21:31:14.218Z,99.90
2017-07-23T21:33:43.230Z,99.90
2017-07-23T21:36:13.470Z,99.90
2017-07-23T21:38:44.624Z,99.90
2017-07-23T21:41:16.332Z,99.90
2017-07-23T21:43:46.329Z,99.90
2017-07-23T21:46:15.817Z,99.90
2017-07-23T21:48:45.002Z,99.90
2017-07-23T21:51:14.380Z,99.90
2017-07-23T21:53:43.492Z,99.90
2017-07-23T21:56:12.324Z,99.90
2017-07-23T21:58:42.662Z,99.90
2017-07-23T22:01:14.691Z,99.90
2017-07-23T22:03:46.110Z,99.90
2017-07-23T22:06:15.901Z,99.90
2017-07-23T22:08:46.597Z,99.90
2017-07-23T22:11:17.642Z,99.90
2017-07-23T22:13:48.731Z,99.90
2017-07-23T22:16:17.644Z,99.90
2017-07-23T22:18:47.666Z,99.90
2017-07-23T22:21:17.495Z,99.90
2017-07-23T22:23:49.362Z,99.90
2017-07-23T22:26:18.364Z,99.90
2017-07-23T22:28:47.371Z,99.90
2017-07-23T22:31:16.486Z,99.90
2017-07-23T22:33:46.893Z,99.90
2017-07-23T22:36:16.624Z,99.90
2017-07-23T22:38:46.441Z,99.90
2017-07-23T22:41:16.674Z,99.90
2017-07-23T22:43:46.261Z,99.90
2017-07-23T22:46:15.873Z,99.90
2017-07-23T22:48:45.269Z,99.90
2017-07-23T22:51:15.788Z,99.90
2017-07-23T22:53:45.728Z,99.90
2017-07-23T22:56:16.062Z,99.90
2017-07-23T22:58:47.104Z,99.90
2017-07-23T23:01:17.793Z,99.90
2017-07-23T23:03:46.670Z,99.90
2017-07-23T23:06:16.085Z,99.90
2017-07-23T23:08:46.805Z,99.90
2017-07-23T23:11:17.033Z,99.90
2017-07-23T23:13:46.177Z,99.90
2017-07-23T23:16:16.532Z,99.90
2017-07-23T23:18:46.545Z,99.90
2017-07-23T23:21:16.971Z,99.90
2017-07-23T23:23:47.148Z,99.90
2017-07-23T23:26:16.349Z,99.90
2017-07-23T23:28:45.919Z,99.90
2017-07-23T23:31:15.481Z,99.90
2017-07-23T23:33:46.338Z,99.90
2017-07-23T23:36:15.965Z,99.90
2017-07-23T23:38:46.272Z,99.90
2017-07-23T23:41:16.146Z,99.90
2017-07-23T23:43:45.882Z,99.90
2017-07-23T23:46:15.749Z,99.90
2017-07-23T23:48:46.247Z,99.90
2017-07-23T23:51:16.257Z,99.90
2017-07-23T23:53:47.169Z,99.90
2017-07-23T23:56:16.452Z,99.90
2017-07-23T23:58:46.503Z,99.90
